Hawthorne, NV (89415)

8:46 PM PDT on July 23, 2016 (GMT -0700)
Fallon Naval Air Station | | Change Station

Elev 3934 ft 39.42 °N, 118.70 °W | Updated 50 minutes ago

Clear
Clear
86 °F
Feels Like 86 °F
N
7
Wind Variable Wind from NNE

Today
High -- | Low -- °F
--% Chance of Precip.
Yesterday
High -- | Low -- °F
Precip. -- in
Pressure 29.91 in
Visibility 10.0 miles
Clouds Clear
Dew Point 24 °F
Humidity 10%
Rainfall 0.00 in
Snow Depth Not available.
5:49 AM 8:12 PM
Waning Gibbous, 80% visible
METAR KNFL 240256Z AUTO 02006KT 10SM CLR 30/M04 A3000 RMK AO2 SLP128 T03001044 55009
Pressure 29.91 in
Visibility 10.0 miles
Clouds Clear
Dew Point 24 °F
Humidity 10%
Rainfall 0.00 in
Snow Depth Not available.
5:49 AM 8:12 PM
Waning Gibbous, 80% visible
METAR KNFL 240256Z AUTO 02006KT 10SM CLR 30/M04 A3000 RMK AO2 SLP128 T03001044 55009

10-Day Weather Forecast

Almanac

Astronomy

Jul. 23, 2016 Rise Set
Actual Time
Civil Twilight
Nautical Twilight
Astronomical Twilight
Moon
Length of Visible Light
Length of Day
Tomorrow will be .
, % of the Moon is Illuminated

Today's Extremes

State Highs State Lows

Community

WunderPhotos

Upload Photos

1,927,022 photos uploaded!

WunderBlog® & News

Nearby

Air Quality

  Air Quality AQ Index Pollutant
Not available.

Snow Depth

Station Depth Elevation

Earthquake Activity

City Distance Mag. Time & Date
Minimum magnitude displayed is 2.5.

Coastal Water Temperatures

Place Temperature

Stations

Nearby Weather Stations

Station Location Temp. Windchill Dew Point Humidity Wind Precip. Elev Updated Type
                   

Watches & Warnings

There are currently no watches in effect.